sensor_id;sensor_type;location;lat;lon;timestamp;P1;durP1;ratioP1;P2;durP2;ratioP2
33836;SDS011;20140;49.356;8.812;2022-10-16T00:01:25;2.85;;;1.50;;
33836;SDS011;20140;49.356;8.812;2022-10-16T00:03:52;2.30;;;2.00;;
33836;SDS011;20140;49.356;8.812;2022-10-16T00:06:18;6.68;;;2.47;;
33836;SDS011;20140;49.356;8.812;2022-10-16T00:08:45;7.40;;;2.45;;
33836;SDS011;20140;49.356;8.812;2022-10-16T00:11:13;5.07;;;1.98;;
33836;SDS011;20140;49.356;8.812;2022-10-16T00:13:43;2.63;;;1.85;;
33836;SDS011;20140;49.356;8.812;2022-10-16T00:16:10;3.67;;;1.73;;
33836;SDS011;20140;49.356;8.812;2022-10-16T00:18:38;2.43;;;1.20;;
33836;SDS011;20140;49.356;8.812;2022-10-16T00:21:05;3.38;;;1.42;;
33836;SDS011;20140;49.356;8.812;2022-10-16T00:23:35;7.82;;;2.50;;
33836;SDS011;20140;49.356;8.812;2022-10-16T00:26:03;3.90;;;1.88;;
33836;SDS011;20140;49.356;8.812;2022-10-16T00:28:34;5.13;;;1.65;;
33836;SDS011;20140;49.356;8.812;2022-10-16T00:31:02;7.43;;;1.58;;
33836;SDS011;20140;49.356;8.812;2022-10-16T00:33:33;2.15;;;1.50;;
33836;SDS011;20140;49.356;8.812;2022-10-16T00:35:59;3.80;;;2.20;;
33836;SDS011;20140;49.356;8.812;2022-10-16T00:38:25;4.60;;;1.75;;
33836;SDS011;20140;49.356;8.812;2022-10-16T00:40:51;2.60;;;1.57;;
33836;SDS011;20140;49.356;8.812;2022-10-16T00:43:39;4.95;;;1.80;;
33836;SDS011;20140;49.356;8.812;2022-10-16T00:48:45;6.20;;;1.85;;
33836;SDS011;20140;49.356;8.812;2022-10-16T00:51:28;4.18;;;1.80;;
33836;SDS011;20140;49.356;8.812;2022-10-16T00:53:59;7.10;;;1.50;;
33836;SDS011;20140;49.356;8.812;2022-10-16T00:56:26;2.58;;;1.27;;
33836;SDS011;20140;49.356;8.812;2022-10-16T00:58:51;3.70;;;1.70;;
33836;SDS011;20140;49.356;8.812;2022-10-16T01:01:17;3.45;;;1.52;;
33836;SDS011;20140;49.356;8.812;2022-10-16T01:03:42;4.22;;;1.50;;
33836;SDS011;20140;49.356;8.812;2022-10-16T01:06:11;7.77;;;2.67;;
33836;SDS011;20140;49.356;8.812;2022-10-16T01:11:45;7.00;;;2.35;;
33836;SDS011;20140;49.356;8.812;2022-10-16T01:14:34;5.10;;;2.65;;
33836;SDS011;20140;49.356;8.812;2022-10-16T01:17:34;6.63;;;2.80;;
33836;SDS011;20140;49.356;8.812;2022-10-16T01:31:53;4.90;;;2.90;;
33836;SDS011;20140;49.356;8.812;2022-10-16T01:34:25;3.42;;;2.53;;
33836;SDS011;20140;49.356;8.812;2022-10-16T01:37:00;4.28;;;1.55;;
33836;SDS011;20140;49.356;8.812;2022-10-16T01:39:35;4.82;;;2.42;;
33836;SDS011;20140;49.356;8.812;2022-10-16T01:42:06;4.93;;;2.28;;
33836;SDS011;20140;49.356;8.812;2022-10-16T01:44:36;6.82;;;1.70;;
33836;SDS011;20140;49.356;8.812;2022-10-16T01:47:03;3.92;;;1.48;;
33836;SDS011;20140;49.356;8.812;2022-10-16T01:49:31;4.97;;;2.22;;
33836;SDS011;20140;49.356;8.812;2022-10-16T01:52:00;6.30;;;2.45;;
33836;SDS011;20140;49.356;8.812;2022-10-16T01:54:30;9.77;;;2.22;;
33836;SDS011;20140;49.356;8.812;2022-10-16T01:56:59;6.32;;;1.65;;
33836;SDS011;20140;49.356;8.812;2022-10-16T01:59:26;11.27;;;1.70;;
33836;SDS011;20140;49.356;8.812;2022-10-16T02:01:56;4.40;;;1.55;;
33836;SDS011;20140;49.356;8.812;2022-10-16T02:04:29;8.68;;;1.70;;
33836;SDS011;20140;49.356;8.812;2022-10-16T02:06:57;6.93;;;2.33;;
33836;SDS011;20140;49.356;8.812;2022-10-16T02:09:23;4.43;;;2.50;;
33836;SDS011;20140;49.356;8.812;2022-10-16T02:11:49;3.37;;;2.40;;
33836;SDS011;20140;49.356;8.812;2022-10-16T02:14:17;3.38;;;2.08;;
33836;SDS011;20140;49.356;8.812;2022-10-16T02:16:44;7.63;;;2.00;;
33836;SDS011;20140;49.356;8.812;2022-10-16T02:19:14;4.50;;;2.03;;
33836;SDS011;20140;49.356;8.812;2022-10-16T02:26:52;4.65;;;1.63;;
33836;SDS011;20140;49.356;8.812;2022-10-16T02:29:25;4.70;;;2.55;;
33836;SDS011;20140;49.356;8.812;2022-10-16T02:31:58;4.25;;;1.75;;
33836;SDS011;20140;49.356;8.812;2022-10-16T02:34:27;3.42;;;1.45;;
33836;SDS011;20140;49.356;8.812;2022-10-16T02:36:56;3.58;;;1.40;;
33836;SDS011;20140;49.356;8.812;2022-10-16T02:39:23;4.63;;;1.77;;
33836;SDS011;20140;49.356;8.812;2022-10-16T02:41:50;3.33;;;2.20;;
33836;SDS011;20140;49.356;8.812;2022-10-16T02:44:16;2.77;;;1.20;;
33836;SDS011;20140;49.356;8.812;2022-10-16T02:46:41;2.40;;;1.30;;
33836;SDS011;20140;49.356;8.812;2022-10-16T02:49:07;2.97;;;1.13;;
33836;SDS011;20140;49.356;8.812;2022-10-16T02:51:32;5.57;;;1.67;;
33836;SDS011;20140;49.356;8.812;2022-10-16T02:53:58;4.30;;;2.00;;
33836;SDS011;20140;49.356;8.812;2022-10-16T02:56:23;2.58;;;1.30;;
33836;SDS011;20140;49.356;8.812;2022-10-16T02:58:49;3.40;;;1.20;;
33836;SDS011;20140;49.356;8.812;2022-10-16T03:01:15;4.50;;;1.27;;
33836;SDS011;20140;49.356;8.812;2022-10-16T03:03:41;3.13;;;1.40;;
33836;SDS011;20140;49.356;8.812;2022-10-16T03:06:07;4.88;;;1.80;;
33836;SDS011;20140;49.356;8.812;2022-10-16T03:08:33;2.50;;;1.40;;
33836;SDS011;20140;49.356;8.812;2022-10-16T03:10:58;12.40;;;2.70;;
33836;SDS011;20140;49.356;8.812;2022-10-16T03:13:24;4.03;;;1.60;;
33836;SDS011;20140;49.356;8.812;2022-10-16T03:15:49;7.05;;;1.90;;
33836;SDS011;20140;49.356;8.812;2022-10-16T03:18:15;3.30;;;1.50;;
33836;SDS011;20140;49.356;8.812;2022-10-16T03:20:42;3.73;;;1.20;;
33836;SDS011;20140;49.356;8.812;2022-10-16T03:23:08;8.00;;;1.65;;
33836;SDS011;20140;49.356;8.812;2022-10-16T03:25:33;7.03;;;1.77;;
33836;SDS011;20140;49.356;8.812;2022-10-16T03:27:59;2.37;;;1.47;;
33836;SDS011;20140;49.356;8.812;2022-10-16T03:30:24;4.27;;;1.73;;
33836;SDS011;20140;49.356;8.812;2022-10-16T03:32:50;2.95;;;1.42;;
33836;SDS011;20140;49.356;8.812;2022-10-16T03:35:19;1.95;;;1.33;;
33836;SDS011;20140;49.356;8.812;2022-10-16T03:37:45;3.87;;;1.17;;
33836;SDS011;20140;49.356;8.812;2022-10-16T03:40:10;6.37;;;1.97;;
33836;SDS011;20140;49.356;8.812;2022-10-16T03:42:36;4.97;;;1.30;;
33836;SDS011;20140;49.356;8.812;2022-10-16T03:45:02;2.77;;;1.27;;
33836;SDS011;20140;49.356;8.812;2022-10-16T03:47:28;1.38;;;1.20;;
33836;SDS011;20140;49.356;8.812;2022-10-16T03:49:53;2.23;;;1.27;;
33836;SDS011;20140;49.356;8.812;2022-10-16T03:52:19;10.70;;;2.10;;
33836;SDS011;20140;49.356;8.812;2022-10-16T03:54:44;2.13;;;1.23;;
33836;SDS011;20140;49.356;8.812;2022-10-16T03:57:10;4.47;;;2.27;;
33836;SDS011;20140;49.356;8.812;2022-10-16T03:59:36;2.95;;;1.35;;
33836;SDS011;20140;49.356;8.812;2022-10-16T04:02:01;3.97;;;1.20;;
33836;SDS011;20140;49.356;8.812;2022-10-16T04:04:27;2.88;;;1.10;;
33836;SDS011;20140;49.356;8.812;2022-10-16T04:06:53;2.80;;;1.40;;
33836;SDS011;20140;49.356;8.812;2022-10-16T04:09:18;2.42;;;1.63;;
33836;SDS011;20140;49.356;8.812;2022-10-16T04:11:44;2.93;;;1.47;;
33836;SDS011;20140;49.356;8.812;2022-10-16T04:14:09;3.85;;;1.70;;
33836;SDS011;20140;49.356;8.812;2022-10-16T04:16:35;5.83;;;1.80;;
33836;SDS011;20140;49.356;8.812;2022-10-16T04:19:00;3.70;;;1.50;;
33836;SDS011;20140;49.356;8.812;2022-10-16T04:21:26;2.40;;;1.55;;
33836;SDS011;20140;49.356;8.812;2022-10-16T04:23:51;1.93;;;1.30;;
33836;SDS011;20140;49.356;8.812;2022-10-16T04:26:17;3.10;;;1.30;;
33836;SDS011;20140;49.356;8.812;2022-10-16T04:28:42;2.45;;;1.48;;
33836;SDS011;20140;49.356;8.812;2022-10-16T04:31:08;6.90;;;1.80;;
33836;SDS011;20140;49.356;8.812;2022-10-16T04:33:33;4.22;;;1.77;;
33836;SDS011;20140;49.356;8.812;2022-10-16T04:35:59;5.50;;;1.57;;
33836;SDS011;20140;49.356;8.812;2022-10-16T04:38:26;2.42;;;2.08;;
33836;SDS011;20140;49.356;8.812;2022-10-16T04:40:52;3.42;;;1.83;;
33836;SDS011;20140;49.356;8.812;2022-10-16T04:43:18;3.92;;;2.58;;
33836;SDS011;20140;49.356;8.812;2022-10-16T04:45:44;6.97;;;1.58;;
33836;SDS011;20140;49.356;8.812;2022-10-16T04:48:09;2.00;;;1.50;;
33836;SDS011;20140;49.356;8.812;2022-10-16T04:50:35;3.38;;;1.48;;
33836;SDS011;20140;49.356;8.812;2022-10-16T04:53:01;9.00;;;1.77;;
33836;SDS011;20140;49.356;8.812;2022-10-16T04:55:26;1.57;;;1.40;;
33836;SDS011;20140;49.356;8.812;2022-10-16T04:57:52;3.85;;;1.50;;
33836;SDS011;20140;49.356;8.812;2022-10-16T05:00:17;2.00;;;1.30;;
33836;SDS011;20140;49.356;8.812;2022-10-16T05:02:43;4.07;;;1.75;;
33836;SDS011;20140;49.356;8.812;2022-10-16T05:05:08;2.97;;;1.92;;
33836;SDS011;20140;49.356;8.812;2022-10-16T05:07:34;3.33;;;2.13;;
33836;SDS011;20140;49.356;8.812;2022-10-16T05:10:00;4.47;;;2.67;;
33836;SDS011;20140;49.356;8.812;2022-10-16T05:12:25;5.53;;;2.45;;
33836;SDS011;20140;49.356;8.812;2022-10-16T05:14:51;4.57;;;2.23;;
33836;SDS011;20140;49.356;8.812;2022-10-16T05:17:16;4.17;;;2.70;;
33836;SDS011;20140;49.356;8.812;2022-10-16T05:19:42;5.13;;;2.78;;
33836;SDS011;20140;49.356;8.812;2022-10-16T05:22:08;3.87;;;2.67;;
33836;SDS011;20140;49.356;8.812;2022-10-16T05:24:34;4.10;;;2.27;;
33836;SDS011;20140;49.356;8.812;2022-10-16T05:26:59;4.68;;;2.15;;
33836;SDS011;20140;49.356;8.812;2022-10-16T05:29:25;1.80;;;1.55;;
33836;SDS011;20140;49.356;8.812;2022-10-16T05:31:54;4.47;;;2.13;;
33836;SDS011;20140;49.356;8.812;2022-10-16T05:34:19;3.35;;;2.10;;
33836;SDS011;20140;49.356;8.812;2022-10-16T05:36:45;4.97;;;3.00;;
33836;SDS011;20140;49.356;8.812;2022-10-16T05:39:11;4.67;;;2.10;;
33836;SDS011;20140;49.356;8.812;2022-10-16T05:41:38;5.25;;;2.00;;
33836;SDS011;20140;49.356;8.812;2022-10-16T05:44:04;5.22;;;1.65;;
33836;SDS011;20140;49.356;8.812;2022-10-16T05:46:30;2.20;;;2.00;;
33836;SDS011;20140;49.356;8.812;2022-10-16T05:48:56;2.58;;;1.63;;
33836;SDS011;20140;49.356;8.812;2022-10-16T05:51:22;5.27;;;2.60;;
33836;SDS011;20140;49.356;8.812;2022-10-16T05:53:48;6.10;;;2.40;;
33836;SDS011;20140;49.356;8.812;2022-10-16T05:56:13;2.80;;;1.55;;
33836;SDS011;20140;49.356;8.812;2022-10-16T05:58:39;5.43;;;1.90;;
33836;SDS011;20140;49.356;8.812;2022-10-16T06:01:15;3.67;;;1.83;;
33836;SDS011;20140;49.356;8.812;2022-10-16T06:03:42;1.42;;;1.20;;
33836;SDS011;20140;49.356;8.812;2022-10-16T06:06:09;4.63;;;1.90;;
33836;SDS011;20140;49.356;8.812;2022-10-16T06:08:39;4.53;;;1.67;;
33836;SDS011;20140;49.356;8.812;2022-10-16T06:11:07;2.93;;;1.73;;
33836;SDS011;20140;49.356;8.812;2022-10-16T06:13:33;5.37;;;1.90;;
33836;SDS011;20140;49.356;8.812;2022-10-16T06:15:59;2.57;;;1.87;;
33836;SDS011;20140;49.356;8.812;2022-10-16T06:18:26;11.35;;;3.40;;
33836;SDS011;20140;49.356;8.812;2022-10-16T06:20:53;10.68;;;2.92;;
33836;SDS011;20140;49.356;8.812;2022-10-16T06:23:19;4.00;;;2.22;;
33836;SDS011;20140;49.356;8.812;2022-10-16T06:25:44;4.90;;;1.92;;
33836;SDS011;20140;49.356;8.812;2022-10-16T06:28:10;2.88;;;2.00;;
33836;SDS011;20140;49.356;8.812;2022-10-16T06:30:36;3.67;;;2.33;;
33836;SDS011;20140;49.356;8.812;2022-10-16T06:33:01;7.53;;;4.07;;
33836;SDS011;20140;49.356;8.812;2022-10-16T06:35:27;3.57;;;1.90;;
33836;SDS011;20140;49.356;8.812;2022-10-16T06:37:54;4.65;;;2.50;;
33836;SDS011;20140;49.356;8.812;2022-10-16T06:40:19;4.43;;;2.43;;
33836;SDS011;20140;49.356;8.812;2022-10-16T06:42:45;3.07;;;2.60;;
33836;SDS011;20140;49.356;8.812;2022-10-16T06:45:10;4.47;;;2.30;;
33836;SDS011;20140;49.356;8.812;2022-10-16T06:47:36;2.37;;;2.17;;
33836;SDS011;20140;49.356;8.812;2022-10-16T06:50:02;3.55;;;2.35;;
33836;SDS011;20140;49.356;8.812;2022-10-16T06:52:28;2.22;;;1.85;;
33836;SDS011;20140;49.356;8.812;2022-10-16T06:54:54;2.30;;;2.10;;
33836;SDS011;20140;49.356;8.812;2022-10-16T06:57:19;5.68;;;2.40;;
33836;SDS011;20140;49.356;8.812;2022-10-16T06:59:45;4.83;;;3.10;;
33836;SDS011;20140;49.356;8.812;2022-10-16T07:02:10;5.50;;;2.80;;
33836;SDS011;20140;49.356;8.812;2022-10-16T07:04:36;2.78;;;2.28;;
33836;SDS011;20140;49.356;8.812;2022-10-16T07:07:02;3.93;;;2.70;;
33836;SDS011;20140;49.356;8.812;2022-10-16T07:09:27;8.60;;;4.43;;
33836;SDS011;20140;49.356;8.812;2022-10-16T07:11:53;12.90;;;7.57;;
33836;SDS011;20140;49.356;8.812;2022-10-16T07:14:19;10.85;;;8.85;;
33836;SDS011;20140;49.356;8.812;2022-10-16T07:16:46;7.43;;;6.65;;
33836;SDS011;20140;49.356;8.812;2022-10-16T07:19:12;3.53;;;2.45;;
33836;SDS011;20140;49.356;8.812;2022-10-16T07:21:40;3.42;;;1.90;;
33836;SDS011;20140;49.356;8.812;2022-10-16T07:24:06;2.95;;;2.00;;
33836;SDS011;20140;49.356;8.812;2022-10-16T07:26:36;5.50;;;2.90;;
33836;SDS011;20140;49.356;8.812;2022-10-16T07:29:04;3.85;;;2.88;;
33836;SDS011;20140;49.356;8.812;2022-10-16T07:31:31;3.63;;;2.85;;
33836;SDS011;20140;49.356;8.812;2022-10-16T07:33:58;5.72;;;3.30;;
33836;SDS011;20140;49.356;8.812;2022-10-16T07:36:24;6.82;;;3.53;;
33836;SDS011;20140;49.356;8.812;2022-10-16T07:38:50;6.50;;;3.92;;
33836;SDS011;20140;49.356;8.812;2022-10-16T07:41:17;5.13;;;3.97;;
33836;SDS011;20140;49.356;8.812;2022-10-16T07:43:48;4.95;;;3.95;;
33836;SDS011;20140;49.356;8.812;2022-10-16T07:46:15;8.23;;;4.43;;
33836;SDS011;20140;49.356;8.812;2022-10-16T07:48:41;5.10;;;4.13;;
33836;SDS011;20140;49.356;8.812;2022-10-16T07:51:10;4.05;;;3.67;;
33836;SDS011;20140;49.356;8.812;2022-10-16T07:53:36;5.10;;;4.30;;
33836;SDS011;20140;49.356;8.812;2022-10-16T07:56:05;10.27;;;6.63;;
33836;SDS011;20140;49.356;8.812;2022-10-16T07:58:32;8.30;;;5.95;;
33836;SDS011;20140;49.356;8.812;2022-10-16T08:01:05;9.43;;;6.53;;
33836;SDS011;20140;49.356;8.812;2022-10-16T08:03:35;6.30;;;4.90;;
33836;SDS011;20140;49.356;8.812;2022-10-16T08:06:01;8.65;;;5.35;;
33836;SDS011;20140;49.356;8.812;2022-10-16T08:08:28;5.18;;;4.30;;
33836;SDS011;20140;49.356;8.812;2022-10-16T08:10:54;10.90;;;5.75;;
33836;SDS011;20140;49.356;8.812;2022-10-16T08:13:19;7.07;;;5.43;;
33836;SDS011;20140;49.356;8.812;2022-10-16T08:15:45;7.57;;;5.47;;
33836;SDS011;20140;49.356;8.812;2022-10-16T08:18:12;4.20;;;3.80;;
33836;SDS011;20140;49.356;8.812;2022-10-16T08:20:38;7.28;;;3.95;;
33836;SDS011;20140;49.356;8.812;2022-10-16T08:23:04;6.30;;;3.28;;
33836;SDS011;20140;49.356;8.812;2022-10-16T08:25:30;5.28;;;3.40;;
33836;SDS011;20140;49.356;8.812;2022-10-16T08:27:56;2.67;;;2.47;;
33836;SDS011;20140;49.356;8.812;2022-10-16T08:30:22;3.83;;;2.53;;
33836;SDS011;20140;49.356;8.812;2022-10-16T08:32:48;3.95;;;2.55;;
33836;SDS011;20140;49.356;8.812;2022-10-16T08:35:14;3.95;;;3.00;;
33836;SDS011;20140;49.356;8.812;2022-10-16T08:37:41;2.50;;;2.27;;
33836;SDS011;20140;49.356;8.812;2022-10-16T08:40:11;3.67;;;2.65;;
33836;SDS011;20140;49.356;8.812;2022-10-16T08:48:49;2.50;;;2.08;;
33836;SDS011;20140;49.356;8.812;2022-10-16T08:51:26;4.70;;;2.20;;
33836;SDS011;20140;49.356;8.812;2022-10-16T08:54:09;2.33;;;1.65;;
33836;SDS011;20140;49.356;8.812;2022-10-16T08:56:53;3.08;;;1.80;;
33836;SDS011;20140;49.356;8.812;2022-10-16T08:59:20;2.83;;;2.33;;
33836;SDS011;20140;49.356;8.812;2022-10-16T09:01:46;3.58;;;2.50;;
33836;SDS011;20140;49.356;8.812;2022-10-16T09:04:22;7.87;;;5.00;;
33836;SDS011;20140;49.356;8.812;2022-10-16T09:07:12;3.97;;;2.03;;
33836;SDS011;20140;49.356;8.812;2022-10-16T09:15:54;2.55;;;1.92;;
33836;SDS011;20140;49.356;8.812;2022-10-16T09:18:48;5.30;;;1.70;;
33836;SDS011;20140;49.356;8.812;2022-10-16T09:21:47;2.10;;;1.90;;
33836;SDS011;20140;49.356;8.812;2022-10-16T09:24:20;5.28;;;2.13;;
33836;SDS011;20140;49.356;8.812;2022-10-16T09:26:48;4.25;;;2.55;;
33836;SDS011;20140;49.356;8.812;2022-10-16T09:29:14;3.53;;;1.58;;
33836;SDS011;20140;49.356;8.812;2022-10-16T09:31:42;3.17;;;1.67;;
33836;SDS011;20140;49.356;8.812;2022-10-16T09:34:29;2.83;;;1.23;;
33836;SDS011;20140;49.356;8.812;2022-10-16T09:36:57;5.07;;;1.63;;
33836;SDS011;20140;49.356;8.812;2022-10-16T09:39:26;6.40;;;2.22;;
33836;SDS011;20140;49.356;8.812;2022-10-16T09:41:51;3.67;;;1.42;;
33836;SDS011;20140;49.356;8.812;2022-10-16T09:44:25;4.95;;;1.60;;
33836;SDS011;20140;49.356;8.812;2022-10-16T09:49:28;1.40;;;1.10;;
33836;SDS011;20140;49.356;8.812;2022-10-16T09:52:04;2.50;;;1.20;;
33836;SDS011;20140;49.356;8.812;2022-10-16T09:54:30;4.03;;;1.98;;
33836;SDS011;20140;49.356;8.812;2022-10-16T09:57:06;3.15;;;1.70;;
33836;SDS011;20140;49.356;8.812;2022-10-16T09:59:32;4.97;;;1.65;;
33836;SDS011;20140;49.356;8.812;2022-10-16T10:02:01;4.23;;;1.30;;
33836;SDS011;20140;49.356;8.812;2022-10-16T10:04:37;2.77;;;1.53;;
33836;SDS011;20140;49.356;8.812;2022-10-16T10:07:06;3.33;;;1.50;;
33836;SDS011;20140;49.356;8.812;2022-10-16T10:09:48;2.42;;;1.60;;
33836;SDS011;20140;49.356;8.812;2022-10-16T10:12:17;1.73;;;1.23;;
33836;SDS011;20140;49.356;8.812;2022-10-16T10:14:49;6.00;;;1.20;;
33836;SDS011;20140;49.356;8.812;2022-10-16T10:19:51;4.15;;;1.52;;
33836;SDS011;20140;49.356;8.812;2022-10-16T10:33:14;2.28;;;1.50;;
33836;SDS011;20140;49.356;8.812;2022-10-16T10:46:50;2.45;;;1.10;;
33836;SDS011;20140;49.356;8.812;2022-10-16T11:01:12;2.38;;;1.67;;
33836;SDS011;20140;49.356;8.812;2022-10-16T11:03:46;2.53;;;1.00;;
33836;SDS011;20140;49.356;8.812;2022-10-16T11:06:41;2.03;;;1.00;;
33836;SDS011;20140;49.356;8.812;2022-10-16T11:09:21;2.25;;;1.00;;
33836;SDS011;20140;49.356;8.812;2022-10-16T11:11:54;0.93;;;0.82;;
33836;SDS011;20140;49.356;8.812;2022-10-16T11:14:30;2.00;;;1.10;;
33836;SDS011;20140;49.356;8.812;2022-10-16T11:17:13;1.95;;;1.10;;
33836;SDS011;20140;49.356;8.812;2022-10-16T11:19:48;2.78;;;1.48;;
33836;SDS011;20140;49.356;8.812;2022-10-16T11:22:26;2.37;;;1.20;;
33836;SDS011;20140;49.356;8.812;2022-10-16T11:27:37;3.50;;;1.48;;
33836;SDS011;20140;49.356;8.812;2022-10-16T11:30:12;3.17;;;1.40;;
33836;SDS011;20140;49.356;8.812;2022-10-16T11:37:56;2.30;;;1.20;;
33836;SDS011;20140;49.356;8.812;2022-10-16T11:40:31;1.60;;;1.27;;
33836;SDS011;20140;49.356;8.812;2022-10-16T11:43:13;3.15;;;1.58;;
33836;SDS011;20140;49.356;8.812;2022-10-16T11:45:45;1.45;;;1.30;;
33836;SDS011;20140;49.356;8.812;2022-10-16T11:48:20;4.28;;;1.63;;
33836;SDS011;20140;49.356;8.812;2022-10-16T11:50:54;1.30;;;1.20;;
33836;SDS011;20140;49.356;8.812;2022-10-16T11:53:59;3.67;;;1.73;;
33836;SDS011;20140;49.356;8.812;2022-10-16T11:56:46;5.43;;;1.45;;
33836;SDS011;20140;49.356;8.812;2022-10-16T11:59:18;4.37;;;1.17;;
33836;SDS011;20140;49.356;8.812;2022-10-16T12:04:43;3.60;;;1.35;;
33836;SDS011;20140;49.356;8.812;2022-10-16T12:07:17;3.65;;;1.25;;
33836;SDS011;20140;49.356;8.812;2022-10-16T12:09:49;2.15;;;1.20;;
33836;SDS011;20140;49.356;8.812;2022-10-16T12:17:51;2.63;;;1.30;;
33836;SDS011;20140;49.356;8.812;2022-10-16T12:22:52;1.92;;;1.83;;
33836;SDS011;20140;49.356;8.812;2022-10-16T12:28:05;1.23;;;0.93;;
33836;SDS011;20140;49.356;8.812;2022-10-16T12:30:40;4.97;;;1.10;;
33836;SDS011;20140;49.356;8.812;2022-10-16T12:33:21;4.77;;;1.83;;
33836;SDS011;20140;49.356;8.812;2022-10-16T12:35:49;4.97;;;1.38;;
33836;SDS011;20140;49.356;8.812;2022-10-16T12:38:22;3.45;;;1.40;;
33836;SDS011;20140;49.356;8.812;2022-10-16T12:41:08;3.75;;;1.23;;
33836;SDS011;20140;49.356;8.812;2022-10-16T12:48:36;2.03;;;1.50;;
33836;SDS011;20140;49.356;8.812;2022-10-16T12:59:29;5.03;;;1.30;;
33836;SDS011;20140;49.356;8.812;2022-10-16T13:19:37;2.72;;;1.58;;
33836;SDS011;20140;49.356;8.812;2022-10-16T13:25:32;2.83;;;1.50;;
33836;SDS011;20140;49.356;8.812;2022-10-16T13:28:06;5.43;;;1.67;;
33836;SDS011;20140;49.356;8.812;2022-10-16T13:30:37;4.38;;;1.38;;
33836;SDS011;20140;49.356;8.812;2022-10-16T13:35:52;3.25;;;1.25;;
33836;SDS011;20140;49.356;8.812;2022-10-16T13:38:26;5.05;;;1.45;;
33836;SDS011;20140;49.356;8.812;2022-10-16T13:41:12;3.20;;;1.55;;
33836;SDS011;20140;49.356;8.812;2022-10-16T13:43:41;3.60;;;1.67;;
33836;SDS011;20140;49.356;8.812;2022-10-16T13:48:41;3.17;;;1.40;;
33836;SDS011;20140;49.356;8.812;2022-10-16T13:53:39;2.08;;;1.50;;
33836;SDS011;20140;49.356;8.812;2022-10-16T13:56:07;3.05;;;1.33;;
33836;SDS011;20140;49.356;8.812;2022-10-16T13:58:36;3.78;;;1.27;;
33836;SDS011;20140;49.356;8.812;2022-10-16T14:01:03;4.07;;;1.73;;
33836;SDS011;20140;49.356;8.812;2022-10-16T14:03:31;5.95;;;1.50;;
33836;SDS011;20140;49.356;8.812;2022-10-16T14:05:59;5.35;;;1.50;;
33836;SDS011;20140;49.356;8.812;2022-10-16T14:08:27;4.00;;;1.60;;
33836;SDS011;20140;49.356;8.812;2022-10-16T14:10:55;4.70;;;1.80;;
33836;SDS011;20140;49.356;8.812;2022-10-16T14:13:26;5.17;;;1.73;;
33836;SDS011;20140;49.356;8.812;2022-10-16T14:15:53;3.83;;;1.33;;
33836;SDS011;20140;49.356;8.812;2022-10-16T14:18:20;4.88;;;1.98;;
33836;SDS011;20140;49.356;8.812;2022-10-16T14:20:48;3.10;;;1.42;;
33836;SDS011;20140;49.356;8.812;2022-10-16T14:23:29;4.10;;;1.60;;
33836;SDS011;20140;49.356;8.812;2022-10-16T14:26:12;3.88;;;1.50;;
33836;SDS011;20140;49.356;8.812;2022-10-16T14:28:39;5.13;;;1.55;;
33836;SDS011;20140;49.356;8.812;2022-10-16T14:31:26;6.97;;;2.20;;
33836;SDS011;20140;49.356;8.812;2022-10-16T14:33:57;2.25;;;1.40;;
33836;SDS011;20140;49.356;8.812;2022-10-16T14:36:23;4.05;;;1.88;;
33836;SDS011;20140;49.356;8.812;2022-10-16T14:39:04;4.22;;;3.00;;
33836;SDS011;20140;49.356;8.812;2022-10-16T14:41:41;7.32;;;4.20;;
33836;SDS011;20140;49.356;8.812;2022-10-16T14:44:11;10.63;;;5.43;;
33836;SDS011;20140;49.356;8.812;2022-10-16T14:46:38;5.03;;;3.75;;
33836;SDS011;20140;49.356;8.812;2022-10-16T14:51:38;8.02;;;3.80;;
33836;SDS011;20140;49.356;8.812;2022-10-16T14:54:13;5.75;;;3.10;;
33836;SDS011;20140;49.356;8.812;2022-10-16T14:56:47;4.88;;;2.92;;
33836;SDS011;20140;49.356;8.812;2022-10-16T15:01:55;6.07;;;2.10;;
33836;SDS011;20140;49.356;8.812;2022-10-16T15:04:21;4.97;;;1.50;;
33836;SDS011;20140;49.356;8.812;2022-10-16T15:06:47;6.23;;;2.90;;
33836;SDS011;20140;49.356;8.812;2022-10-16T15:09:12;5.25;;;2.50;;
33836;SDS011;20140;49.356;8.812;2022-10-16T15:11:38;5.68;;;2.60;;
33836;SDS011;20140;49.356;8.812;2022-10-16T15:14:04;4.70;;;2.40;;
33836;SDS011;20140;49.356;8.812;2022-10-16T15:16:30;3.75;;;2.40;;
33836;SDS011;20140;49.356;8.812;2022-10-16T15:18:56;8.57;;;2.30;;
33836;SDS011;20140;49.356;8.812;2022-10-16T15:21:24;5.00;;;1.93;;
33836;SDS011;20140;49.356;8.812;2022-10-16T15:23:54;6.10;;;1.77;;
33836;SDS011;20140;49.356;8.812;2022-10-16T15:26:21;5.45;;;1.90;;
33836;SDS011;20140;49.356;8.812;2022-10-16T15:28:48;7.88;;;1.80;;
33836;SDS011;20140;49.356;8.812;2022-10-16T15:31:13;4.97;;;2.05;;
33836;SDS011;20140;49.356;8.812;2022-10-16T15:33:39;4.93;;;1.70;;
33836;SDS011;20140;49.356;8.812;2022-10-16T15:36:04;5.85;;;1.65;;
33836;SDS011;20140;49.356;8.812;2022-10-16T15:38:30;3.67;;;1.70;;
33836;SDS011;20140;49.356;8.812;2022-10-16T15:40:56;3.53;;;1.90;;
33836;SDS011;20140;49.356;8.812;2022-10-16T15:43:22;3.55;;;1.63;;
33836;SDS011;20140;49.356;8.812;2022-10-16T15:45:57;5.75;;;1.55;;
33836;SDS011;20140;49.356;8.812;2022-10-16T15:48:25;2.15;;;1.75;;
33836;SDS011;20140;49.356;8.812;2022-10-16T15:50:51;5.90;;;2.20;;
33836;SDS011;20140;49.356;8.812;2022-10-16T15:53:17;3.77;;;1.63;;
33836;SDS011;20140;49.356;8.812;2022-10-16T15:55:42;6.40;;;1.90;;
33836;SDS011;20140;49.356;8.812;2022-10-16T15:58:08;4.27;;;2.10;;
33836;SDS011;20140;49.356;8.812;2022-10-16T16:00:33;7.47;;;2.38;;
33836;SDS011;20140;49.356;8.812;2022-10-16T16:02:59;9.00;;;2.30;;
33836;SDS011;20140;49.356;8.812;2022-10-16T16:05:24;5.95;;;1.92;;
33836;SDS011;20140;49.356;8.812;2022-10-16T16:07:50;4.90;;;2.00;;
33836;SDS011;20140;49.356;8.812;2022-10-16T16:10:16;8.95;;;1.70;;
33836;SDS011;20140;49.356;8.812;2022-10-16T16:12:42;5.95;;;1.92;;
33836;SDS011;20140;49.356;8.812;2022-10-16T16:15:14;6.88;;;2.70;;
33836;SDS011;20140;49.356;8.812;2022-10-16T16:17:39;6.28;;;2.35;;
33836;SDS011;20140;49.356;8.812;2022-10-16T16:20:05;8.80;;;2.77;;
33836;SDS011;20140;49.356;8.812;2022-10-16T16:22:32;4.70;;;2.47;;
33836;SDS011;20140;49.356;8.812;2022-10-16T16:24:57;5.63;;;2.60;;
33836;SDS011;20140;49.356;8.812;2022-10-16T16:27:23;5.78;;;2.22;;
33836;SDS011;20140;49.356;8.812;2022-10-16T16:29:49;4.77;;;2.57;;
33836;SDS011;20140;49.356;8.812;2022-10-16T16:32:15;5.57;;;2.50;;
33836;SDS011;20140;49.356;8.812;2022-10-16T16:34:41;4.85;;;2.45;;
33836;SDS011;20140;49.356;8.812;2022-10-16T16:37:06;9.37;;;2.00;;
33836;SDS011;20140;49.356;8.812;2022-10-16T16:39:32;7.88;;;2.20;;
33836;SDS011;20140;49.356;8.812;2022-10-16T16:41:57;5.07;;;1.80;;
33836;SDS011;20140;49.356;8.812;2022-10-16T16:44:23;6.43;;;3.23;;
33836;SDS011;20140;49.356;8.812;2022-10-16T16:46:49;9.05;;;2.92;;
33836;SDS011;20140;49.356;8.812;2022-10-16T16:49:15;6.53;;;3.10;;
33836;SDS011;20140;49.356;8.812;2022-10-16T16:51:41;9.77;;;3.38;;
33836;SDS011;20140;49.356;8.812;2022-10-16T16:54:06;8.50;;;3.43;;
33836;SDS011;20140;49.356;8.812;2022-10-16T16:56:33;4.97;;;2.10;;
33836;SDS011;20140;49.356;8.812;2022-10-16T16:58:58;6.40;;;2.22;;
33836;SDS011;20140;49.356;8.812;2022-10-16T17:01:25;13.50;;;7.40;;
33836;SDS011;20140;49.356;8.812;2022-10-16T17:03:53;13.93;;;8.02;;
33836;SDS011;20140;49.356;8.812;2022-10-16T17:06:21;8.10;;;6.13;;
33836;SDS011;20140;49.356;8.812;2022-10-16T17:08:48;14.70;;;10.20;;
33836;SDS011;20140;49.356;8.812;2022-10-16T17:11:16;26.30;;;16.33;;
33836;SDS011;20140;49.356;8.812;2022-10-16T17:13:43;19.92;;;16.52;;
33836;SDS011;20140;49.356;8.812;2022-10-16T17:16:09;22.75;;;17.30;;
33836;SDS011;20140;49.356;8.812;2022-10-16T17:18:35;13.60;;;10.55;;
33836;SDS011;20140;49.356;8.812;2022-10-16T17:21:02;13.30;;;7.38;;